createdAt,value
2018-03-30T00:01:19.640Z,61.50
2018-03-30T00:03:49.078Z,61.07
2018-03-30T00:06:18.365Z,60.77
2018-03-30T00:08:47.929Z,60.69
2018-03-30T00:11:22.586Z,61.17
2018-03-30T00:13:52.010Z,61.38
2018-03-30T00:16:21.265Z,61.53
2018-03-30T00:18:50.595Z,61.79
2018-03-30T00:21:20.059Z,61.95
2018-03-30T00:23:49.350Z,62.08
2018-03-30T00:26:19.127Z,62.03
2018-03-30T00:28:49.806Z,61.96
2018-03-30T00:31:20.520Z,62.10
2018-03-30T00:33:51.256Z,61.96
2018-03-30T00:36:21.728Z,62.01
2018-03-30T00:38:52.788Z,62.11
2018-03-30T00:41:23.762Z,62.16
2018-03-30T00:43:54.879Z,62.18
2018-03-30T00:46:25.742Z,62.16
2018-03-30T00:48:57.274Z,62.32
2018-03-30T00:51:27.797Z,62.30
2018-03-30T00:53:58.491Z,62.31
2018-03-30T00:56:29.126Z,62.29
2018-03-30T00:58:59.732Z,62.30
2018-03-30T01:01:30.742Z,62.27
2018-03-30T01:04:01.799Z,62.48
2018-03-30T01:06:32.673Z,62.57
2018-03-30T01:09:03.816Z,62.47
2018-03-30T01:11:34.659Z,62.58
2018-03-30T01:14:05.141Z,62.54
2018-03-30T01:16:36.670Z,62.48
2018-03-30T01:19:07.737Z,62.41
2018-03-30T01:21:38.449Z,62.40
2018-03-30T01:24:09.547Z,62.52
2018-03-30T01:26:40.537Z,62.54
2018-03-30T01:29:11.556Z,62.61
2018-03-30T01:31:42.068Z,62.53
2018-03-30T01:34:12.768Z,62.68
2018-03-30T01:36:43.708Z,62.70
2018-03-30T01:39:14.821Z,62.76
2018-03-30T01:41:45.855Z,62.90
2018-03-30T01:44:16.889Z,63.14
2018-03-30T01:46:47.382Z,62.70
2018-03-30T01:49:17.949Z,63.10
2018-03-30T01:51:48.347Z,63.18
2018-03-30T01:54:18.876Z,63.08
2018-03-30T01:56:49.695Z,63.24
2018-03-30T01:59:20.758Z,63.21
2018-03-30T02:01:51.674Z,63.15
2018-03-30T02:04:24.479Z,63.21
2018-03-30T02:06:54.272Z,63.29
2018-03-30T02:09:24.807Z,63.38
2018-03-30T02:11:55.753Z,63.16
2018-03-30T02:14:26.848Z,63.36
2018-03-30T02:16:57.741Z,63.42
2018-03-30T02:19:28.815Z,63.47
2018-03-30T02:21:59.732Z,63.32
2018-03-30T02:24:30.834Z,63.57
2018-03-30T02:27:01.690Z,63.75
2018-03-30T02:29:32.385Z,63.77
2018-03-30T02:32:03.175Z,63.99
2018-03-30T02:34:33.903Z,63.58
2018-03-30T02:37:04.745Z,63.31
2018-03-30T02:39:35.769Z,63.52
2018-03-30T02:42:06.649Z,63.34
2018-03-30T02:44:37.807Z,63.70
2018-03-30T02:47:08.719Z,63.58
2018-03-30T02:49:39.819Z,63.56
2018-03-30T02:52:10.761Z,63.83
2018-03-30T02:54:41.859Z,63.71
2018-03-30T02:57:12.700Z,63.69
2018-03-30T02:59:43.839Z,63.77
2018-03-30T03:02:14.774Z,63.97
2018-03-30T03:04:45.464Z,63.95
2018-03-30T03:07:16.148Z,64.12
2018-03-30T03:09:46.811Z,64.07
2018-03-30T03:12:17.719Z,64.46
2018-03-30T03:14:48.776Z,64.17
2018-03-30T03:17:19.702Z,64.18
2018-03-30T03:19:50.755Z,64.44
2018-03-30T03:22:21.703Z,64.25
2018-03-30T03:24:52.399Z,64.23
2018-03-30T03:27:23.064Z,64.38
2018-03-30T03:29:53.804Z,64.54
2018-03-30T03:32:25.085Z,64.57
2018-03-30T03:34:55.162Z,64.61
2018-03-30T03:37:25.770Z,64.62
2018-03-30T03:39:56.850Z,64.82
2018-03-30T03:42:27.648Z,64.88
2018-03-30T03:44:58.795Z,64.82
2018-03-30T03:47:29.442Z,64.89
2018-03-30T03:49:59.979Z,64.62
2018-03-30T03:52:30.749Z,64.53
2018-03-30T03:55:01.761Z,64.66
2018-03-30T03:57:32.799Z,64.64
2018-03-30T04:00:03.467Z,64.76
2018-03-30T04:02:34.280Z,64.67
2018-03-30T04:05:04.884Z,64.65
2018-03-30T04:07:42.816Z,64.66
2018-03-30T04:10:12.186Z,64.70
2018-03-30T04:12:41.466Z,64.87
2018-03-30T04:15:10.879Z,65.00
2018-03-30T04:17:40.191Z,64.87
2018-03-30T04:20:09.458Z,65.00
2018-03-30T04:22:40.116Z,65.23
2018-03-30T04:25:10.881Z,65.28
2018-03-30T04:27:41.772Z,65.37
2018-03-30T04:30:12.790Z,65.54
2018-03-30T04:32:43.762Z,65.51
2018-03-30T04:35:15.129Z,65.30
2018-03-30T04:37:45.848Z,65.80
2018-03-30T04:40:16.762Z,65.75
2018-03-30T04:42:47.766Z,65.90
2018-03-30T04:45:18.932Z,65.83
2018-03-30T04:47:49.857Z,65.69
2018-03-30T04:50:20.862Z,65.55
2018-03-30T04:52:51.394Z,65.90
2018-03-30T04:55:22.448Z,66.16
2018-03-30T04:57:53.450Z,66.26
2018-03-30T05:00:24.497Z,66.23
2018-03-30T05:02:55.457Z,66.28
2018-03-30T05:05:26.516Z,66.51
2018-03-30T05:07:57.263Z,66.43
2018-03-30T05:10:27.827Z,66.49
2018-03-30T05:12:58.531Z,66.94
2018-03-30T05:15:29.609Z,66.74
2018-03-30T05:18:00.577Z,67.27
2018-03-30T05:20:32.031Z,66.95
2018-03-30T05:23:02.769Z,66.82
2018-03-30T05:25:33.843Z,66.77
2018-03-30T05:28:04.689Z,66.68
2018-03-30T05:30:35.768Z,67.45
2018-03-30T05:33:06.778Z,67.35
2018-03-30T05:35:37.774Z,67.18
2018-03-30T05:38:08.796Z,68.09
2018-03-30T05:40:39.872Z,67.82
2018-03-30T05:43:10.346Z,67.84
2018-03-30T05:45:41.135Z,67.88
2018-03-30T05:48:11.596Z,67.94
2018-03-30T05:50:42.672Z,67.71
2018-03-30T05:53:13.723Z,67.89
2018-03-30T05:55:44.803Z,67.33
2018-03-30T05:58:15.643Z,67.56
2018-03-30T06:00:46.691Z,69.09
2018-03-30T06:03:17.674Z,67.62
2018-03-30T06:05:48.732Z,68.17
2018-03-30T06:08:19.728Z,67.31
2018-03-30T06:10:51.758Z,66.04
2018-03-30T06:13:22.467Z,65.72
2018-03-30T06:15:53.259Z,65.60
2018-03-30T06:18:23.789Z,64.98
2018-03-30T06:20:54.919Z,64.87
2018-03-30T06:23:25.706Z,65.08
2018-03-30T06:25:57.931Z,65.57
2018-03-30T06:28:28.303Z,64.52
2018-03-30T06:30:58.857Z,64.27
2018-03-30T06:33:29.851Z,64.34
2018-03-30T06:36:00.925Z,64.02
2018-03-30T06:38:31.968Z,63.77
2018-03-30T06:41:02.467Z,63.39
2018-03-30T06:43:33.131Z,63.42
2018-03-30T06:46:03.987Z,63.49
2018-03-30T06:48:34.705Z,63.19
2018-03-30T06:51:05.806Z,62.99
2018-03-30T06:53:36.698Z,62.88
2018-03-30T06:56:07.413Z,62.68
2018-03-30T06:58:38.104Z,62.50
2018-03-30T07:01:09.038Z,62.30
2018-03-30T07:03:39.860Z,62.21
2018-03-30T07:06:10.768Z,62.58
2018-03-30T07:08:41.804Z,62.56
2018-03-30T07:11:12.951Z,61.73
2018-03-30T07:13:45.956Z,61.50
2018-03-30T07:16:16.032Z,61.60
2018-03-30T07:18:46.564Z,61.48
2018-03-30T07:21:17.459Z,60.97
2018-03-30T07:23:48.157Z,60.44
2018-03-30T07:26:18.983Z,59.49
2018-03-30T07:28:49.934Z,59.41
2018-03-30T07:31:21.539Z,58.54
2018-03-30T07:33:51.731Z,58.90
2018-03-30T07:36:22.708Z,58.61
2018-03-30T07:38:53.536Z,58.13
2018-03-30T07:41:24.356Z,58.36
2018-03-30T07:43:55.274Z,57.91
2018-03-30T07:46:25.976Z,56.84
2018-03-30T07:48:56.940Z,57.28
2018-03-30T07:51:27.900Z,56.97
2018-03-30T07:53:59.577Z,56.42
2018-03-30T07:56:30.557Z,56.47
2018-03-30T07:59:01.381Z,55.95
2018-03-30T08:01:32.344Z,55.95
2018-03-30T08:04:02.788Z,55.91
2018-03-30T08:06:33.544Z,55.13
2018-03-30T08:09:03.852Z,54.88
2018-03-30T08:11:34.787Z,54.46
2018-03-30T08:14:05.723Z,53.92
2018-03-30T08:16:36.715Z,53.25
2018-03-30T08:19:07.553Z,52.67
2018-03-30T08:21:38.279Z,52.18
2018-03-30T08:24:08.824Z,52.37
2018-03-30T08:26:39.813Z,52.94
2018-03-30T08:29:11.134Z,51.81
2018-03-30T08:31:42.117Z,51.34
2018-03-30T08:34:13.354Z,49.84
2018-03-30T08:36:44.830Z,50.24
2018-03-30T08:39:15.709Z,50.34
2018-03-30T08:41:47.413Z,48.47
2018-03-30T08:44:17.071Z,47.94
2018-03-30T08:46:47.910Z,48.39
2018-03-30T08:49:18.764Z,47.23
2018-03-30T08:51:49.537Z,46.63
2018-03-30T08:54:20.549Z,45.64
2018-03-30T08:56:51.600Z,46.23
2018-03-30T08:59:22.280Z,44.69
2018-03-30T09:01:52.917Z,46.35
2018-03-30T09:04:25.448Z,45.46
2018-03-30T09:06:56.288Z,45.35
2018-03-30T09:09:26.364Z,45.48
2018-03-30T09:11:57.729Z,45.28
2018-03-30T09:14:28.072Z,45.01
2018-03-30T09:16:59.885Z,43.43
2018-03-30T09:19:30.433Z,41.92
2018-03-30T09:22:00.331Z,41.23
2018-03-30T09:24:30.138Z,41.63
2018-03-30T09:27:01.112Z,40.34
2018-03-30T09:29:31.088Z,41.76
2018-03-30T09:32:01.998Z,39.94
2018-03-30T09:34:32.575Z,38.79
2018-03-30T09:37:03.249Z,38.88
2018-03-30T09:39:33.040Z,38.92
2018-03-30T09:42:03.866Z,38.91
2018-03-30T09:44:34.686Z,39.82
2018-03-30T09:47:05.869Z,38.64
2018-03-30T09:49:36.774Z,39.44
2018-03-30T09:52:07.784Z,38.63
2018-03-30T09:54:38.828Z,38.37
2018-03-30T09:57:09.804Z,37.68
2018-03-30T09:59:40.769Z,36.99
2018-03-30T10:02:11.697Z,36.94
2018-03-30T10:04:45.395Z,37.11
2018-03-30T10:07:14.575Z,37.41
2018-03-30T10:09:45.305Z,37.30
2018-03-30T10:12:15.860Z,37.11
2018-03-30T10:14:46.710Z,37.79
2018-03-30T10:17:17.794Z,37.68
2018-03-30T10:19:48.711Z,37.13
2018-03-30T10:22:19.417Z,37.31
2018-03-30T10:24:50.109Z,37.43
2018-03-30T10:27:20.884Z,37.35
2018-03-30T10:29:51.730Z,37.06
2018-03-30T10:32:22.942Z,35.61
2018-03-30T10:34:53.792Z,35.31
2018-03-30T10:37:24.804Z,33.87
2018-03-30T10:39:55.389Z,33.36
2018-03-30T10:42:26.134Z,32.35
2018-03-30T10:44:57.181Z,32.13
2018-03-30T10:47:27.083Z,30.80
2018-03-30T10:49:57.887Z,32.10
2018-03-30T10:52:28.520Z,31.39
2018-03-30T10:54:59.324Z,31.50
2018-03-30T10:57:29.836Z,29.04
2018-03-30T11:00:00.913Z,29.84
2018-03-30T11:02:31.696Z,29.47
2018-03-30T11:05:02.761Z,29.95
2018-03-30T11:07:33.738Z,29.38
2018-03-30T11:10:04.881Z,28.66
2018-03-30T11:12:35.709Z,29.31
2018-03-30T11:15:06.786Z,29.04
2018-03-30T11:17:37.680Z,30.38
2018-03-30T11:20:13.784Z,28.21
2018-03-30T11:22:42.757Z,28.61
2018-03-30T11:25:11.736Z,28.49
2018-03-30T11:27:42.443Z,28.54
2018-03-30T11:30:14.069Z,28.73
2018-03-30T11:32:44.208Z,26.58
2018-03-30T11:35:14.781Z,26.22
2018-03-30T11:37:45.816Z,26.31
2018-03-30T11:40:18.593Z,27.05
2018-03-30T11:42:48.308Z,27.48
2018-03-30T11:45:18.828Z,25.21
2018-03-30T11:47:49.803Z,26.81
2018-03-30T11:50:20.819Z,25.91
2018-03-30T11:52:51.750Z,24.73
2018-03-30T11:55:22.885Z,26.09
2018-03-30T11:57:53.716Z,25.38
2018-03-30T12:00:24.449Z,26.60
2018-03-30T12:02:55.184Z,24.72
2018-03-30T12:05:25.791Z,26.37
2018-03-30T12:07:56.830Z,26.00
2018-03-30T12:10:27.784Z,26.58
2018-03-30T12:12:58.796Z,26.36
2018-03-30T12:15:29.820Z,26.15
2018-03-30T12:18:00.693Z,26.24
2018-03-30T12:20:31.384Z,26.50
2018-03-30T12:23:02.075Z,26.36
2018-03-30T12:25:32.745Z,26.36
2018-03-30T12:28:03.856Z,25.26
2018-03-30T12:30:34.827Z,24.96
2018-03-30T12:33:05.522Z,25.58
2018-03-30T12:35:36.556Z,25.80
2018-03-30T12:38:07.294Z,26.00
2018-03-30T12:40:37.751Z,25.33
2018-03-30T12:43:08.839Z,25.68
2018-03-30T12:45:39.713Z,25.91
2018-03-30T12:48:10.830Z,26.61
2018-03-30T12:50:42.023Z,26.59
2018-03-30T12:53:12.916Z,25.53
2018-03-30T12:55:43.692Z,26.07
2018-03-30T12:58:14.444Z,25.59
2018-03-30T13:00:45.080Z,25.01
2018-03-30T13:03:15.862Z,26.75
2018-03-30T13:05:46.752Z,26.60
2018-03-30T13:08:17.808Z,25.68
2018-03-30T13:10:48.694Z,25.04
2018-03-30T13:13:19.734Z,26.12
2018-03-30T13:15:50.728Z,26.70
2018-03-30T13:18:21.784Z,27.03
2018-03-30T13:20:52.722Z,26.91
2018-03-30T13:23:23.795Z,26.35
2018-03-30T13:25:54.671Z,26.45
2018-03-30T13:28:25.793Z,25.76
2018-03-30T13:30:56.812Z,26.20
2018-03-30T13:33:27.888Z,26.58
2018-03-30T13:35:58.373Z,26.75
2018-03-30T13:38:28.901Z,26.93
2018-03-30T13:40:59.697Z,26.54
2018-03-30T13:43:30.751Z,26.29
2018-03-30T13:46:01.873Z,26.24
2018-03-30T13:48:32.782Z,26.15
2018-03-30T13:51:17.980Z,25.89
2018-03-30T13:54:01.631Z,25.03
2018-03-30T13:56:31.644Z,24.68
2018-03-30T13:59:00.069Z,24.90
2018-03-30T14:01:29.309Z,25.44
2018-03-30T14:04:00.850Z,25.87
2018-03-30T14:09:31.885Z,25.93
2018-03-30T14:12:10.019Z,25.96
2018-03-30T14:14:38.420Z,25.64
2018-03-30T14:20:07.516Z,26.11
2018-03-30T14:22:41.895Z,25.96
2018-03-30T14:25:12.724Z,26.37
2018-03-30T14:27:41.136Z,26.01
2018-03-30T14:30:13.229Z,25.86
2018-03-30T14:32:58.466Z,24.52
2018-03-30T14:35:39.200Z,24.53
2018-03-30T14:38:08.548Z,25.52
2018-03-30T14:40:48.860Z,25.91
2018-03-30T14:43:22.039Z,25.16
2018-03-30T14:46:05.402Z,25.33
2018-03-30T14:48:36.732Z,25.76
2018-03-30T14:51:13.840Z,25.87
2018-03-30T14:53:45.684Z,26.53
2018-03-30T14:56:17.222Z,26.42
2018-03-30T14:58:49.243Z,28.03
2018-03-30T15:04:38.981Z,27.68
2018-03-30T15:07:16.860Z,27.32
2018-03-30T15:09:52.794Z,27.92
2018-03-30T15:12:27.997Z,28.22
2018-03-30T15:17:57.435Z,28.08
2018-03-30T15:20:29.792Z,28.28
2018-03-30T15:23:15.774Z,28.82
2018-03-30T15:28:47.747Z,29.19
2018-03-30T15:34:21.495Z,29.52
2018-03-30T15:37:01.559Z,29.67
2018-03-30T15:39:30.057Z,30.00
2018-03-30T15:42:01.295Z,30.37
2018-03-30T15:44:30.941Z,30.17
2018-03-30T15:47:02.458Z,29.76
2018-03-30T15:49:32.125Z,29.84
2018-03-30T15:52:03.608Z,30.03
2018-03-30T15:54:31.205Z,29.98
2018-03-30T15:57:00.280Z,30.60
2018-03-30T15:59:29.246Z,31.01
2018-03-30T16:01:58.108Z,31.00
2018-03-30T16:04:26.571Z,31.37
2018-03-30T16:06:54.955Z,31.49
2018-03-30T16:09:28.095Z,31.52
2018-03-30T16:11:59.433Z,31.62
2018-03-30T16:14:27.863Z,31.64
2018-03-30T16:16:56.852Z,31.43
2018-03-30T16:19:26.299Z,31.23
2018-03-30T16:21:55.770Z,31.58
2018-03-30T16:24:25.277Z,31.30
2018-03-30T16:26:52.866Z,31.53
2018-03-30T16:29:20.681Z,31.93
2018-03-30T16:31:48.276Z,31.88
2018-03-30T16:34:15.870Z,31.89
2018-03-30T16:36:43.523Z,32.17
2018-03-30T16:39:11.356Z,32.44
2018-03-30T16:41:39.287Z,32.74
2018-03-30T16:44:07.245Z,32.77
2018-03-30T16:46:35.134Z,32.67
2018-03-30T16:49:02.752Z,32.91
2018-03-30T16:51:30.417Z,32.96
2018-03-30T16:53:58.333Z,33.26
2018-03-30T16:56:26.235Z,33.40
2018-03-30T16:58:55.771Z,33.55
2018-03-30T17:01:23.388Z,33.59
2018-03-30T17:03:51.248Z,33.50
2018-03-30T17:06:19.283Z,33.63
2018-03-30T17:08:47.343Z,34.39
2018-03-30T17:11:15.284Z,34.90
2018-03-30T17:13:43.373Z,35.28
2018-03-30T17:16:11.311Z,36.07
2018-03-30T17:18:39.247Z,36.45
2018-03-30T17:21:07.240Z,36.84
2018-03-30T17:23:35.159Z,37.04
2018-03-30T17:26:02.772Z,37.30
2018-03-30T17:28:30.445Z,37.76
2018-03-30T17:30:58.356Z,37.86
2018-03-30T17:33:26.187Z,38.11
2018-03-30T17:35:54.178Z,38.35
2018-03-30T17:38:21.799Z,38.76
2018-03-30T17:40:49.399Z,39.42
2018-03-30T17:43:17.342Z,39.30
2018-03-30T17:45:45.238Z,39.40
2018-03-30T17:48:13.144Z,39.69
2018-03-30T17:50:41.136Z,39.70
2018-03-30T17:53:09.037Z,39.79
2018-03-30T17:55:36.662Z,39.86
2018-03-30T17:58:04.323Z,40.10
2018-03-30T18:00:33.080Z,40.17
2018-03-30T18:03:00.771Z,40.67
2018-03-30T18:05:28.689Z,40.60
2018-03-30T18:07:56.312Z,40.76
2018-03-30T18:10:24.012Z,41.00
2018-03-30T18:12:51.706Z,41.39
2018-03-30T18:15:19.354Z,42.05
2018-03-30T18:17:47.483Z,42.01
2018-03-30T18:20:15.251Z,41.91
2018-03-30T18:22:42.849Z,42.09
2018-03-30T18:25:11.971Z,42.78
2018-03-30T18:27:41.371Z,42.62
2018-03-30T18:30:08.971Z,43.03
2018-03-30T18:32:36.744Z,43.25
2018-03-30T18:35:04.471Z,43.41
2018-03-30T18:37:32.276Z,43.69
2018-03-30T18:39:59.892Z,44.59
2018-03-30T18:42:27.573Z,45.04
2018-03-30T18:44:55.342Z,44.65
2018-03-30T18:47:23.370Z,44.99
2018-03-30T18:49:51.338Z,45.01
2018-03-30T18:52:19.340Z,44.89
2018-03-30T18:54:47.252Z,44.92
2018-03-30T18:57:15.270Z,45.51
2018-03-30T18:59:43.192Z,45.52
2018-03-30T19:02:10.800Z,46.01
2018-03-30T19:04:38.468Z,45.72
2018-03-30T19:07:06.346Z,45.88
2018-03-30T19:09:34.269Z,46.13
2018-03-30T19:12:02.258Z,46.95
2018-03-30T19:14:30.152Z,47.00
2018-03-30T19:16:57.819Z,46.48
2018-03-30T19:19:25.481Z,46.98
2018-03-30T19:21:53.373Z,47.34
2018-03-30T19:24:21.280Z,47.81
2018-03-30T19:26:49.247Z,47.67
2018-03-30T19:29:17.238Z,47.64
2018-03-30T19:31:45.165Z,47.65
2018-03-30T19:34:12.894Z,47.42
2018-03-30T19:36:40.539Z,47.76
2018-03-30T19:39:08.270Z,47.54
2018-03-30T19:41:36.289Z,47.70
2018-03-30T19:44:04.226Z,47.48
2018-03-30T19:46:36.536Z,47.54
2018-03-30T19:49:04.371Z,46.99
2018-03-30T19:51:32.310Z,46.94
2018-03-30T19:54:00.245Z,46.65
2018-03-30T19:56:28.255Z,46.88
2018-03-30T19:58:56.153Z,46.78
2018-03-30T20:01:24.058Z,46.70
2018-03-30T20:03:51.756Z,46.93
2018-03-30T20:06:19.365Z,46.71
2018-03-30T20:08:47.232Z,46.46
2018-03-30T20:11:15.310Z,46.39
2018-03-30T20:13:43.220Z,45.93
2018-03-30T20:16:11.189Z,45.84
2018-03-30T20:18:43.907Z,45.99
2018-03-30T20:21:15.178Z,45.87
2018-03-30T20:23:43.141Z,45.95
2018-03-30T20:26:10.760Z,46.15
2018-03-30T20:28:38.848Z,45.99
2018-03-30T20:31:06.531Z,45.78
2018-03-30T20:33:34.573Z,45.90
2018-03-30T20:36:03.875Z,45.82
2018-03-30T20:38:33.439Z,46.04
2018-03-30T20:41:02.759Z,46.29
2018-03-30T20:43:32.314Z,46.60
2018-03-30T20:46:03.589Z,46.64
2018-03-30T20:48:33.162Z,46.85
2018-03-30T20:51:01.114Z,47.21
2018-03-30T20:53:28.844Z,47.47
2018-03-30T20:55:56.463Z,47.83
2018-03-30T20:58:24.384Z,47.99
2018-03-30T21:00:52.450Z,47.82
2018-03-30T21:03:20.264Z,48.01
2018-03-30T21:05:48.180Z,48.40
2018-03-30T21:08:15.862Z,48.45
2018-03-30T21:10:43.469Z,48.52
2018-03-30T21:13:11.379Z,48.67
2018-03-30T21:15:39.347Z,48.62
2018-03-30T21:18:07.313Z,48.96
2018-03-30T21:20:35.242Z,49.03
2018-03-30T21:23:03.242Z,49.17
2018-03-30T21:25:31.172Z,49.32
2018-03-30T21:27:59.086Z,49.28
2018-03-30T21:30:26.776Z,49.32
2018-03-30T21:32:54.424Z,49.69
2018-03-30T21:35:22.240Z,49.53
2018-03-30T21:37:50.194Z,49.70
2018-03-30T21:40:17.808Z,49.45
2018-03-30T21:42:45.396Z,49.94
2018-03-30T21:45:13.422Z,50.11
2018-03-30T21:47:41.328Z,50.15
2018-03-30T21:50:09.242Z,49.90
2018-03-30T21:52:37.232Z,50.11
2018-03-30T21:55:05.144Z,50.32
2018-03-30T21:57:32.745Z,50.29
2018-03-30T22:00:00.420Z,50.59
2018-03-30T22:02:28.303Z,50.53
2018-03-30T22:04:56.233Z,50.16
2018-03-30T22:07:24.556Z,50.09
2018-03-30T22:09:52.255Z,50.00
2018-03-30T22:12:20.236Z,50.38
2018-03-30T22:14:48.188Z,50.41
2018-03-30T22:17:16.097Z,50.47
2018-03-30T22:19:43.703Z,50.44
2018-03-30T22:22:11.359Z,50.64
2018-03-30T22:24:39.247Z,50.97
2018-03-30T22:27:07.154Z,51.01
2018-03-30T22:29:35.102Z,51.22
2018-03-30T22:32:02.728Z,50.96
2018-03-30T22:34:30.549Z,50.78
2018-03-30T22:36:58.714Z,50.96
2018-03-30T22:39:26.720Z,50.91
2018-03-30T22:41:54.736Z,50.68
2018-03-30T22:44:22.784Z,50.60
2018-03-30T22:46:50.836Z,50.77
2018-03-30T22:49:19.125Z,50.70
2018-03-30T22:51:49.384Z,50.68
2018-03-30T22:54:19.117Z,50.58
2018-03-30T22:56:48.650Z,50.74
2018-03-30T22:59:18.252Z,50.99
2018-03-30T23:01:47.915Z,50.73
2018-03-30T23:04:15.813Z,50.94
2018-03-30T23:06:43.780Z,51.09
2018-03-30T23:09:11.372Z,50.82
2018-03-30T23:11:39.293Z,50.95
2018-03-30T23:14:07.337Z,50.99
2018-03-30T23:16:35.233Z,51.13
2018-03-30T23:19:03.125Z,51.65
2018-03-30T23:21:30.854Z,51.55
2018-03-30T23:23:58.516Z,51.59
2018-03-30T23:26:26.373Z,52.07
2018-03-30T23:28:54.322Z,52.41
2018-03-30T23:31:22.076Z,52.39
2018-03-30T23:33:49.924Z,53.09
2018-03-30T23:36:17.445Z,53.49
2018-03-30T23:38:45.101Z,53.20
2018-03-30T23:41:12.707Z,53.62
2018-03-30T23:43:40.383Z,53.19
2018-03-30T23:46:08.267Z,53.23
2018-03-30T23:48:36.183Z,53.17
2018-03-30T23:51:04.383Z,53.40
2018-03-30T23:53:32.213Z,53.61
2018-03-30T23:56:00.103Z,54.04
2018-03-30T23:58:27.772Z,53.68
